createdAt,value
2019-04-06T00:00:49.874Z,29.98
2019-04-06T00:01:30.219Z,28.45
2019-04-06T00:02:05.650Z,28.32
2019-04-06T00:02:39.129Z,28.70
2019-04-06T00:03:12.002Z,28.40
2019-04-06T00:03:44.682Z,28.87
2019-04-06T00:04:17.268Z,29.98
2019-04-06T00:04:50.189Z,28.70
2019-04-06T00:05:22.740Z,31.35
2019-04-06T00:05:55.289Z,31.48
2019-04-06T00:06:27.844Z,28.92
2019-04-06T00:07:00.375Z,29.67
2019-04-06T00:07:33.234Z,28.35
2019-04-06T00:08:05.799Z,25.95
2019-04-06T00:08:38.346Z,28.12
2019-04-06T00:09:11.229Z,26.90
2019-04-06T00:09:43.803Z,27.62
2019-04-06T00:10:16.894Z,26.87
2019-04-06T00:10:50.033Z,28.32
2019-04-06T00:11:22.591Z,27.80
2019-04-06T00:11:55.271Z,28.85
2019-04-06T00:12:27.833Z,29.15
2019-04-06T00:13:00.379Z,24.50
2019-04-06T00:13:36.874Z,26.90
2019-04-06T00:14:14.328Z,26.68
2019-04-06T00:14:47.150Z,28.17
2019-04-06T00:15:19.703Z,26.93
2019-04-06T00:15:52.647Z,25.25
2019-04-06T00:16:26.020Z,26.52
2019-04-06T00:16:58.570Z,25.10
2019-04-06T00:17:31.486Z,25.88
2019-04-06T00:18:04.374Z,25.43
2019-04-06T00:18:36.926Z,26.87
2019-04-06T00:19:09.751Z,27.75
2019-04-06T00:19:42.302Z,25.32
2019-04-06T00:20:16.071Z,25.45
2019-04-06T00:20:48.784Z,25.65
2019-04-06T00:21:21.339Z,25.48
2019-04-06T00:21:53.891Z,27.07
2019-04-06T00:22:26.435Z,26.20
2019-04-06T00:22:58.978Z,27.07
2019-04-06T00:23:31.530Z,26.50
2019-04-06T00:24:04.190Z,24.85
2019-04-06T00:24:38.340Z,24.90
2019-04-06T00:25:16.844Z,27.17
2019-04-06T00:25:53.252Z,24.15
2019-04-06T00:26:25.826Z,23.73
2019-04-06T00:26:59.110Z,24.92
2019-04-06T00:27:31.658Z,24.47
2019-04-06T00:28:04.404Z,25.27
2019-04-06T00:28:37.329Z,24.25
2019-04-06T00:29:11.797Z,25.20
2019-04-06T00:29:44.351Z,25.43
2019-04-06T00:30:19.999Z,24.63
2019-04-06T00:31:01.958Z,23.38
2019-04-06T00:31:58.681Z,24.12
2019-04-06T00:32:42.726Z,23.27
2019-04-06T00:33:17.950Z,23.05
2019-04-06T00:33:50.494Z,23.70
2019-04-06T00:34:23.042Z,22.20
2019-04-06T00:34:55.622Z,22.58
2019-04-06T00:35:28.166Z,22.75
2019-04-06T00:36:00.710Z,24.50
2019-04-06T00:36:33.290Z,23.60
2019-04-06T00:37:06.152Z,24.72
2019-04-06T00:37:38.698Z,23.22
2019-04-06T00:38:11.635Z,24.37
2019-04-06T00:38:44.938Z,25.08
2019-04-06T00:39:17.488Z,25.17
2019-04-06T00:39:50.032Z,24.72
2019-04-06T00:40:22.586Z,22.98
2019-04-06T00:40:55.126Z,23.52
2019-04-06T00:41:27.838Z,23.25
2019-04-06T00:42:00.817Z,25.43
2019-04-06T00:42:33.676Z,25.70
2019-04-06T00:43:06.209Z,23.52
2019-04-06T00:43:39.150Z,25.72
2019-04-06T00:44:11.715Z,24.77
2019-04-06T00:44:44.275Z,23.67
2019-04-06T00:45:17.208Z,25.05
2019-04-06T00:45:49.759Z,23.32
2019-04-06T00:46:22.320Z,22.52
2019-04-06T00:46:54.874Z,23.85
2019-04-06T00:47:27.453Z,24.30
2019-04-06T00:48:00.011Z,24.60
2019-04-06T00:48:34.346Z,24.90
2019-04-06T00:49:06.976Z,23.52
2019-04-06T00:49:39.911Z,23.40
2019-04-06T00:50:12.662Z,24.07
2019-04-06T00:50:45.196Z,24.15
2019-04-06T00:51:17.743Z,22.87
2019-04-06T00:51:50.284Z,24.47
2019-04-06T00:52:23.144Z,24.10
2019-04-06T00:52:56.044Z,24.43
2019-04-06T00:53:28.953Z,23.65
2019-04-06T00:54:01.486Z,22.60
2019-04-06T00:54:34.366Z,22.22
2019-04-06T00:55:07.025Z,23.30
2019-04-06T00:55:39.562Z,22.77
2019-04-06T00:56:12.470Z,24.87
2019-04-06T00:56:45.333Z,24.63
2019-04-06T00:57:17.879Z,24.50
2019-04-06T00:57:50.429Z,25.57
2019-04-06T00:58:22.993Z,23.73
2019-04-06T00:58:55.955Z,23.85
2019-04-06T00:59:28.511Z,24.05
2019-04-06T01:00:01.331Z,24.47
2019-04-06T01:00:34.178Z,24.52
2019-04-06T01:01:06.713Z,23.75
2019-04-06T01:01:39.707Z,24.95
2019-04-06T01:02:12.464Z,25.95
2019-04-06T01:02:45.378Z,24.02
2019-04-06T01:03:17.935Z,22.73
2019-04-06T01:03:50.522Z,24.15
2019-04-06T01:04:23.373Z,23.00
2019-04-06T01:04:55.948Z,24.23
2019-04-06T01:05:28.481Z,24.07
2019-04-06T01:06:01.029Z,24.92
2019-04-06T01:06:33.574Z,24.15
2019-04-06T01:07:06.451Z,24.05
2019-04-06T01:07:38.995Z,24.37
2019-04-06T01:08:11.542Z,25.15
2019-04-06T01:08:44.105Z,24.10
2019-04-06T01:09:16.787Z,23.42
2019-04-06T01:09:50.145Z,24.30
2019-04-06T01:10:23.063Z,24.35
2019-04-06T01:10:55.888Z,24.65
2019-04-06T01:11:28.430Z,23.47
2019-04-06T01:12:01.386Z,23.27
2019-04-06T01:12:34.294Z,23.00
2019-04-06T01:13:06.834Z,22.65
2019-04-06T01:13:39.382Z,22.17
2019-04-06T01:14:11.945Z,22.60
2019-04-06T01:14:44.523Z,22.48
2019-04-06T01:15:17.050Z,21.97
2019-04-06T01:15:49.612Z,22.70
2019-04-06T01:16:22.159Z,23.85
2019-04-06T01:16:54.719Z,22.48
2019-04-06T01:17:27.674Z,23.15
2019-04-06T01:18:00.211Z,21.95
2019-04-06T01:18:32.772Z,21.20
2019-04-06T01:19:05.419Z,22.40
2019-04-06T01:19:38.124Z,24.55
2019-04-06T01:20:10.685Z,21.52
2019-04-06T01:20:43.364Z,23.70
2019-04-06T01:21:16.554Z,23.55
2019-04-06T01:21:49.079Z,22.45
2019-04-06T01:22:21.959Z,22.85
2019-04-06T01:22:54.843Z,22.82
2019-04-06T01:23:27.379Z,23.47
2019-04-06T01:23:59.917Z,24.30
2019-04-06T01:24:32.466Z,23.87
2019-04-06T01:25:08.163Z,25.15
2019-04-06T01:25:40.750Z,24.12
2019-04-06T01:26:13.299Z,21.87
2019-04-06T01:26:45.860Z,23.50
2019-04-06T01:27:18.722Z,24.12
2019-04-06T01:27:51.582Z,25.62
2019-04-06T01:28:24.472Z,24.18
2019-04-06T01:28:57.017Z,24.30
2019-04-06T01:29:29.567Z,26.00
2019-04-06T01:30:03.270Z,24.65
2019-04-06T01:30:35.834Z,25.40
2019-04-06T01:31:08.731Z,27.60
2019-04-06T01:31:41.623Z,24.77
2019-04-06T01:32:14.442Z,24.85
2019-04-06T01:32:47.082Z,24.63
2019-04-06T01:33:19.664Z,25.62
2019-04-06T01:33:52.964Z,26.50
2019-04-06T01:34:25.507Z,27.02
2019-04-06T01:34:58.059Z,25.15
2019-04-06T01:35:30.603Z,28.20
2019-04-06T01:36:03.526Z,25.90
2019-04-06T01:36:36.097Z,27.98
2019-04-06T01:37:08.660Z,28.45
2019-04-06T01:37:41.199Z,27.48
2019-04-06T01:38:14.082Z,25.45
2019-04-06T01:38:46.631Z,26.20
2019-04-06T01:39:19.178Z,27.27
2019-04-06T01:39:51.710Z,26.35
2019-04-06T01:40:24.268Z,26.62
2019-04-06T01:40:56.810Z,27.82
2019-04-06T01:41:29.721Z,25.92
2019-04-06T01:42:02.514Z,28.87
2019-04-06T01:42:35.070Z,26.48
2019-04-06T01:43:07.622Z,27.25
2019-04-06T01:43:40.194Z,27.50
2019-04-06T01:44:12.963Z,27.60
2019-04-06T01:44:45.547Z,26.80
2019-04-06T01:45:18.087Z,27.75
2019-04-06T01:45:51.001Z,29.05
2019-04-06T01:46:23.544Z,27.50
2019-04-06T01:46:56.091Z,27.42
2019-04-06T01:47:28.676Z,27.00
2019-04-06T01:48:01.222Z,27.70
2019-04-06T01:48:33.762Z,28.12
2019-04-06T01:49:06.545Z,27.02
2019-04-06T01:49:39.758Z,26.45
2019-04-06T01:50:12.499Z,26.15
2019-04-06T01:50:45.047Z,25.15
2019-04-06T01:51:17.983Z,25.95
2019-04-06T01:51:50.527Z,26.45
2019-04-06T01:52:23.153Z,27.10
2019-04-06T01:52:56.166Z,28.57
2019-04-06T01:53:29.031Z,26.68
2019-04-06T01:54:01.590Z,27.22
2019-04-06T01:54:34.130Z,26.62
2019-04-06T01:55:06.681Z,26.75
2019-04-06T01:55:39.232Z,27.70
2019-04-06T01:56:18.397Z,27.85
2019-04-06T01:56:46.840Z,27.75
2019-04-06T01:57:19.357Z,28.07
2019-04-06T01:57:51.973Z,26.62
2019-04-06T01:58:24.887Z,26.37
2019-04-06T01:58:57.516Z,25.40
2019-04-06T01:59:30.095Z,26.80
2019-04-06T02:00:04.298Z,29.82
2019-04-06T02:00:37.741Z,26.25
2019-04-06T02:01:21.317Z,28.62
2019-04-06T02:02:00.730Z,29.90
2019-04-06T02:02:35.767Z,27.13
2019-04-06T02:03:08.367Z,29.07
2019-04-06T02:03:40.894Z,29.57
2019-04-06T02:04:13.755Z,30.00
2019-04-06T02:04:46.294Z,29.07
2019-04-06T02:05:19.187Z,28.98
2019-04-06T02:05:51.722Z,26.95
2019-04-06T02:06:24.602Z,29.18
2019-04-06T02:06:57.159Z,27.15
2019-04-06T02:07:29.703Z,28.20
2019-04-06T02:08:02.614Z,28.80
2019-04-06T02:08:35.485Z,29.42
2019-04-06T02:09:08.464Z,28.25
2019-04-06T02:09:41.012Z,28.00
2019-04-06T02:10:13.890Z,27.87
2019-04-06T02:10:46.806Z,29.27
2019-04-06T02:11:19.687Z,29.42
2019-04-06T02:11:52.366Z,28.40
2019-04-06T02:12:24.919Z,27.42
2019-04-06T02:12:58.222Z,26.42
2019-04-06T02:13:30.792Z,27.35
2019-04-06T02:14:03.333Z,28.73
2019-04-06T02:14:36.007Z,26.87
2019-04-06T02:15:08.551Z,26.30
2019-04-06T02:15:41.090Z,28.07
2019-04-06T02:16:13.637Z,28.15
2019-04-06T02:16:46.589Z,29.15
2019-04-06T02:17:19.249Z,27.95
2019-04-06T02:17:52.949Z,26.90
2019-04-06T02:18:25.833Z,27.15
2019-04-06T02:18:58.395Z,26.45
2019-04-06T02:19:31.264Z,27.22
2019-04-06T02:20:04.926Z,27.50
2019-04-06T02:20:37.476Z,24.70
2019-04-06T02:21:10.381Z,28.07
2019-04-06T02:21:43.290Z,27.00
2019-04-06T02:22:16.533Z,29.32
2019-04-06T02:22:49.095Z,27.87
2019-04-06T02:23:21.609Z,28.62
2019-04-06T02:23:55.258Z,26.62
2019-04-06T02:24:27.799Z,26.12
2019-04-06T02:25:00.682Z,27.65
2019-04-06T02:25:33.275Z,26.55
2019-04-06T02:26:06.218Z,26.12
2019-04-06T02:26:38.770Z,27.10
2019-04-06T02:27:11.309Z,28.15
2019-04-06T02:27:43.863Z,26.42
2019-04-06T02:28:16.465Z,27.60
2019-04-06T02:28:49.021Z,27.95
2019-04-06T02:29:21.550Z,27.02
2019-04-06T02:30:14.945Z,24.43
2019-04-06T02:31:01.755Z,25.00
2019-04-06T02:31:52.754Z,25.05
2019-04-06T02:32:34.291Z,26.30
2019-04-06T02:33:32.388Z,24.52
2019-04-06T02:34:31.879Z,23.52
2019-04-06T02:35:17.117Z,22.90
2019-04-06T02:36:04.519Z,25.32
2019-04-06T02:37:02.921Z,24.63
2019-04-06T02:37:45.428Z,23.75
2019-04-06T02:38:46.167Z,24.12
2019-04-06T02:39:47.778Z,23.80
2019-04-06T02:40:39.824Z,24.23
2019-04-06T02:41:29.053Z,22.60
2019-04-06T02:42:12.582Z,22.82
2019-04-06T02:42:48.627Z,22.45
2019-04-06T02:43:24.007Z,21.75
2019-04-06T02:43:57.006Z,23.15
2019-04-06T02:44:29.556Z,21.87
2019-04-06T02:45:02.215Z,23.50
2019-04-06T02:45:34.729Z,22.80
2019-04-06T02:46:07.588Z,23.75
2019-04-06T02:46:40.192Z,23.52
2019-04-06T02:47:12.698Z,22.98
2019-04-06T02:47:45.256Z,21.20
2019-04-06T02:48:17.801Z,23.20
2019-04-06T02:48:50.369Z,22.37
2019-04-06T02:49:22.940Z,20.77
2019-04-06T02:49:55.492Z,22.15
2019-04-06T02:50:28.326Z,20.35
2019-04-06T02:51:01.157Z,21.42
2019-04-06T02:51:34.142Z,21.23
2019-04-06T02:52:06.729Z,20.50
2019-04-06T02:52:39.409Z,19.60
2019-04-06T02:53:12.061Z,20.20
2019-04-06T02:53:44.580Z,20.75
2019-04-06T02:54:17.127Z,19.80
2019-04-06T02:54:49.848Z,19.75
2019-04-06T02:55:24.246Z,19.60
2019-04-06T02:55:56.723Z,20.30
2019-04-06T02:56:44.260Z,19.92
2019-04-06T02:57:04.755Z,20.52
2019-04-06T02:57:37.326Z,20.60
2019-04-06T02:58:09.891Z,20.57
2019-04-06T02:58:42.858Z,19.40
2019-04-06T02:59:15.647Z,19.57
2019-04-06T02:59:48.194Z,19.67
2019-04-06T03:00:20.876Z,19.45
2019-04-06T03:00:53.465Z,18.30
2019-04-06T03:01:26.035Z,20.15
2019-04-06T03:01:58.609Z,19.70
2019-04-06T03:02:31.560Z,19.30
2019-04-06T03:03:04.179Z,18.62
2019-04-06T03:03:36.773Z,19.40
2019-04-06T03:04:09.420Z,19.92
2019-04-06T03:04:42.747Z,20.77
2019-04-06T03:05:15.455Z,17.95
2019-04-06T03:05:48.009Z,19.30
2019-04-06T03:06:20.725Z,18.45
2019-04-06T03:06:55.028Z,19.77
2019-04-06T03:07:28.281Z,19.62
2019-04-06T03:08:00.849Z,18.92
2019-04-06T03:08:33.817Z,18.30
2019-04-06T03:09:06.512Z,19.32
2019-04-06T03:09:39.070Z,18.40
2019-04-06T03:10:12.821Z,16.65
2019-04-06T03:10:45.791Z,19.40
2019-04-06T03:11:20.172Z,19.15
2019-04-06T03:11:53.056Z,19.80
2019-04-06T03:12:27.532Z,19.98
2019-04-06T03:13:00.530Z,19.48
2019-04-06T03:13:33.104Z,20.43
2019-04-06T03:14:05.696Z,20.27
2019-04-06T03:14:38.703Z,19.70
2019-04-06T03:15:11.480Z,19.42
2019-04-06T03:15:44.058Z,20.68
2019-04-06T03:16:16.625Z,19.77
2019-04-06T03:16:49.519Z,19.57
2019-04-06T03:17:22.093Z,20.35
2019-04-06T03:17:54.767Z,19.87
2019-04-06T03:18:27.319Z,19.37
2019-04-06T03:19:01.002Z,20.75
2019-04-06T03:19:33.691Z,19.75
2019-04-06T03:20:06.499Z,21.30
2019-04-06T03:20:40.551Z,19.67
2019-04-06T03:21:13.102Z,20.62
2019-04-06T03:21:45.672Z,20.80
2019-04-06T03:22:18.246Z,21.45
2019-04-06T03:22:51.217Z,21.40
2019-04-06T03:23:25.322Z,19.90
2019-04-06T03:23:58.416Z,21.00
2019-04-06T03:24:31.512Z,21.05
2019-04-06T03:25:04.223Z,22.80
2019-04-06T03:25:36.815Z,19.90
2019-04-06T03:26:10.117Z,19.82
2019-04-06T03:26:43.547Z,20.68
2019-04-06T03:27:16.325Z,19.85
2019-04-06T03:27:48.875Z,21.00
2019-04-06T03:28:21.456Z,20.95
2019-04-06T03:28:54.015Z,19.73
2019-04-06T03:29:26.938Z,21.30
2019-04-06T03:29:59.968Z,23.07
2019-04-06T03:30:33.229Z,22.85
2019-04-06T03:31:05.797Z,22.73
2019-04-06T03:31:38.380Z,25.10
2019-04-06T03:32:11.345Z,24.77
2019-04-06T03:32:44.765Z,25.75
2019-04-06T03:33:19.125Z,22.70
2019-04-06T03:33:52.054Z,27.30
2019-04-06T03:34:24.917Z,28.10
2019-04-06T03:34:57.794Z,26.62
2019-04-06T03:35:30.974Z,26.23
2019-04-06T03:36:04.303Z,26.15
2019-04-06T03:36:36.796Z,26.82
2019-04-06T03:37:09.377Z,28.98
2019-04-06T03:37:43.872Z,25.68
2019-04-06T03:38:16.624Z,25.15
2019-04-06T03:38:49.283Z,25.72
2019-04-06T03:39:22.775Z,27.90
2019-04-06T03:39:55.777Z,25.77
2019-04-06T03:40:30.173Z,27.02
2019-04-06T03:41:03.252Z,26.93
2019-04-06T03:41:35.864Z,26.77
2019-04-06T03:42:10.657Z,28.38
2019-04-06T03:42:44.222Z,27.85
2019-04-06T03:43:16.936Z,28.83
2019-04-06T03:43:51.378Z,29.52
2019-04-06T03:44:23.966Z,27.10
2019-04-06T03:44:56.534Z,26.33
2019-04-06T03:45:29.381Z,27.77
2019-04-06T03:46:02.079Z,29.50
2019-04-06T03:46:34.761Z,25.70
2019-04-06T03:47:07.696Z,27.55
2019-04-06T03:47:40.665Z,27.15
2019-04-06T03:48:15.034Z,28.90
2019-04-06T03:48:47.943Z,27.82
2019-04-06T03:49:20.958Z,27.50
2019-04-06T03:49:53.801Z,27.70
2019-04-06T03:50:26.585Z,28.38
2019-04-06T03:51:01.535Z,27.02
2019-04-06T03:51:34.381Z,27.50
2019-04-06T03:52:09.184Z,26.93
2019-04-06T03:52:41.803Z,26.40
2019-04-06T03:53:14.356Z,26.45
2019-04-06T03:53:47.259Z,25.48
2019-04-06T03:54:20.255Z,25.70
2019-04-06T03:54:54.265Z,25.25
2019-04-06T03:55:27.031Z,26.20
2019-04-06T03:56:00.138Z,28.05
2019-04-06T03:56:32.709Z,28.90
2019-04-06T03:57:14.609Z,27.70
2019-04-06T03:57:40.093Z,27.22
2019-04-06T03:58:12.720Z,28.07
2019-04-06T03:58:45.219Z,26.33
2019-04-06T03:59:17.754Z,29.23
2019-04-06T03:59:50.318Z,27.98
2019-04-06T04:00:22.986Z,28.38
2019-04-06T04:00:56.111Z,26.65
2019-04-06T04:01:28.737Z,28.30
2019-04-06T04:02:01.333Z,27.13
2019-04-06T04:02:33.887Z,28.45
2019-04-06T04:03:06.428Z,26.95
2019-04-06T04:03:39.372Z,25.60
2019-04-06T04:04:11.913Z,26.82
2019-04-06T04:04:44.774Z,26.07
2019-04-06T04:05:17.328Z,25.82
2019-04-06T04:05:50.474Z,26.25
2019-04-06T04:06:23.436Z,26.70
2019-04-06T04:06:56.303Z,25.57
2019-04-06T04:07:29.229Z,25.88
2019-04-06T04:08:02.069Z,26.00
2019-04-06T04:08:34.947Z,26.10
2019-04-06T04:09:07.539Z,24.20
2019-04-06T04:09:40.551Z,27.10
2019-04-06T04:10:30.574Z,27.42
2019-04-06T04:11:03.154Z,26.87
2019-04-06T04:11:36.062Z,26.05
2019-04-06T04:12:08.615Z,24.67
2019-04-06T04:12:41.162Z,26.70
2019-04-06T04:13:13.715Z,25.05
2019-04-06T04:13:46.267Z,26.05
2019-04-06T04:14:19.134Z,26.27
2019-04-06T04:14:52.060Z,26.48
2019-04-06T04:15:24.989Z,24.82
2019-04-06T04:15:58.579Z,27.22
2019-04-06T04:16:31.122Z,25.50
2019-04-06T04:17:04.029Z,26.55
2019-04-06T04:17:36.549Z,23.70
2019-04-06T04:18:09.099Z,25.82
2019-04-06T04:18:42.007Z,26.10
2019-04-06T04:19:14.555Z,26.68
2019-04-06T04:19:47.832Z,25.48
2019-04-06T04:20:20.544Z,26.33
2019-04-06T04:20:53.037Z,27.22
2019-04-06T04:21:25.699Z,24.32
2019-04-06T04:21:58.251Z,26.20
2019-04-06T04:22:30.800Z,25.43
2019-04-06T04:23:03.471Z,27.45
2019-04-06T04:23:36.372Z,27.10
2019-04-06T04:24:09.397Z,25.48
2019-04-06T04:24:42.476Z,23.50
2019-04-06T04:25:15.137Z,25.90
2019-04-06T04:25:47.683Z,25.68
2019-04-06T04:26:20.559Z,26.73
2019-04-06T04:26:53.181Z,24.60
2019-04-06T04:27:29.685Z,24.52
2019-04-06T04:28:01.634Z,26.50
2019-04-06T04:28:34.500Z,26.33
2019-04-06T04:29:08.059Z,26.97
2019-04-06T04:29:40.794Z,27.02
2019-04-06T04:30:15.201Z,25.52
2019-04-06T04:30:47.918Z,24.90
2019-04-06T04:31:20.790Z,27.50
2019-04-06T04:31:53.363Z,27.17
2019-04-06T04:32:25.904Z,25.75
2019-04-06T04:32:58.746Z,25.77
2019-04-06T04:33:31.304Z,25.37
2019-04-06T04:34:03.854Z,23.50
2019-04-06T04:34:36.799Z,24.87
2019-04-06T04:35:09.515Z,25.15
2019-04-06T04:35:42.079Z,25.72
2019-04-06T04:36:15.524Z,25.02
2019-04-06T04:36:48.476Z,25.15
2019-04-06T04:37:21.761Z,26.65
2019-04-06T04:37:54.298Z,24.90
2019-04-06T04:38:26.925Z,25.77
2019-04-06T04:38:59.574Z,25.45
2019-04-06T04:39:32.426Z,24.47
2019-04-06T04:40:05.503Z,24.70
2019-04-06T04:40:38.116Z,24.25
2019-04-06T04:41:10.720Z,25.75
2019-04-06T04:41:43.255Z,23.95
2019-04-06T04:42:15.841Z,24.45
2019-04-06T04:42:49.032Z,24.50
2019-04-06T04:43:21.587Z,24.10
2019-04-06T04:43:54.466Z,25.70
2019-04-06T04:44:27.735Z,25.65
2019-04-06T04:45:00.926Z,26.17
2019-04-06T04:45:33.493Z,24.77
2019-04-06T04:46:06.378Z,27.05
2019-04-06T04:46:39.222Z,26.35
2019-04-06T04:47:11.847Z,26.60
2019-04-06T04:47:45.233Z,27.98
2019-04-06T04:48:17.782Z,27.77
2019-04-06T04:48:50.712Z,26.93
2019-04-06T04:49:23.651Z,26.97
2019-04-06T04:49:56.237Z,26.60
2019-04-06T04:50:28.787Z,28.60
2019-04-06T04:51:01.454Z,25.88
2019-04-06T04:51:34.225Z,24.82
2019-04-06T04:52:07.115Z,28.05
2019-04-06T04:52:40.068Z,26.45
2019-04-06T04:53:13.005Z,26.30
2019-04-06T04:53:45.568Z,26.07
2019-04-06T04:54:18.271Z,25.70
2019-04-06T04:54:50.791Z,25.97
2019-04-06T04:55:24.472Z,25.55
2019-04-06T04:55:57.002Z,27.10
2019-04-06T04:56:29.588Z,26.42
2019-04-06T04:57:02.133Z,26.65
2019-04-06T04:57:40.165Z,24.35
2019-04-06T04:58:09.118Z,24.65
2019-04-06T04:58:42.171Z,25.80
2019-04-06T04:59:15.153Z,25.92
2019-04-06T04:59:47.719Z,24.37
2019-04-06T05:00:20.640Z,25.00
2019-04-06T05:00:54.244Z,27.10
2019-04-06T05:01:27.022Z,26.15
2019-04-06T05:01:59.571Z,26.62
2019-04-06T05:02:32.124Z,25.32
2019-04-06T05:03:05.036Z,27.10
2019-04-06T05:03:38.095Z,25.80
2019-04-06T05:04:10.644Z,27.05
2019-04-06T05:04:43.490Z,26.85
2019-04-06T05:05:16.047Z,25.90
2019-04-06T05:05:48.603Z,26.27
2019-04-06T05:06:21.137Z,26.30
2019-04-06T05:06:54.007Z,26.77
2019-04-06T05:07:26.551Z,26.93
2019-04-06T05:07:59.239Z,27.85
2019-04-06T05:08:31.875Z,27.35
2019-04-06T05:09:06.188Z,26.12
2019-04-06T05:09:38.718Z,25.82
2019-04-06T05:10:12.281Z,26.25
2019-04-06T05:10:44.821Z,27.10
2019-04-06T05:11:17.535Z,26.07
2019-04-06T05:11:50.143Z,26.95
2019-04-06T05:12:22.695Z,26.23
2019-04-06T05:12:55.591Z,25.50
2019-04-06T05:13:29.094Z,25.12
2019-04-06T05:14:38.415Z,25.75
2019-04-06T05:15:12.843Z,24.43
2019-04-06T05:16:09.119Z,25.12
2019-04-06T05:16:44.578Z,25.55
2019-04-06T05:17:17.125Z,24.65
2019-04-06T05:17:49.987Z,26.73
2019-04-06T05:18:22.631Z,27.80
2019-04-06T05:18:55.182Z,29.45
2019-04-06T05:19:28.136Z,27.25
2019-04-06T05:20:00.732Z,28.07
2019-04-06T05:20:33.634Z,27.82
2019-04-06T05:21:06.271Z,27.58
2019-04-06T05:21:38.886Z,27.70
2019-04-06T05:22:11.513Z,27.98
2019-04-06T05:22:44.989Z,27.73
2019-04-06T05:23:17.910Z,26.95
2019-04-06T05:23:50.802Z,27.27
2019-04-06T05:24:23.367Z,26.12
2019-04-06T05:24:56.536Z,27.32
2019-04-06T05:25:29.413Z,27.10
2019-04-06T05:26:04.474Z,26.55
2019-04-06T05:26:38.562Z,26.25
2019-04-06T05:27:16.135Z,24.23
2019-04-06T05:27:52.543Z,23.25
2019-04-06T05:28:23.847Z,25.50
2019-04-06T05:28:56.401Z,25.60
2019-04-06T05:29:29.278Z,25.68
2019-04-06T05:30:01.907Z,25.62
2019-04-06T05:30:34.618Z,26.77
2019-04-06T05:31:07.574Z,23.47
2019-04-06T05:31:40.383Z,25.92
2019-04-06T05:32:13.006Z,23.98
2019-04-06T05:32:46.081Z,26.30
2019-04-06T05:33:18.802Z,26.15
2019-04-06T05:33:51.452Z,25.32
2019-04-06T05:34:25.223Z,24.50
2019-04-06T05:34:58.371Z,24.67
2019-04-06T05:35:31.230Z,26.17
2019-04-06T05:36:05.158Z,24.80
2019-04-06T05:36:38.126Z,26.23
2019-04-06T05:37:10.879Z,26.40
2019-04-06T05:37:45.668Z,27.65
2019-04-06T05:38:18.238Z,26.82
2019-04-06T05:38:50.819Z,24.92
2019-04-06T05:39:24.593Z,26.05
2019-04-06T05:39:57.149Z,26.42
2019-04-06T05:40:29.886Z,27.32
2019-04-06T05:41:02.605Z,25.60
2019-04-06T05:41:35.574Z,26.10
2019-04-06T05:42:08.413Z,26.02
2019-04-06T05:42:41.035Z,25.60
2019-04-06T05:43:13.579Z,25.52
2019-04-06T05:43:46.128Z,26.25
2019-04-06T05:44:18.679Z,26.20
2019-04-06T05:44:51.908Z,26.57
2019-04-06T05:45:25.189Z,26.62
2019-04-06T05:45:58.467Z,25.68
2019-04-06T05:46:31.383Z,26.55
2019-04-06T05:47:04.082Z,25.12
2019-04-06T05:47:36.631Z,26.50
2019-04-06T05:48:09.198Z,26.05
2019-04-06T05:48:42.258Z,27.05
2019-04-06T05:49:14.801Z,25.32
2019-04-06T05:49:47.389Z,26.48
2019-04-06T05:50:20.201Z,25.20
2019-04-06T05:50:52.754Z,26.57
2019-04-06T05:51:25.289Z,26.40
2019-04-06T05:51:57.852Z,25.60
2019-04-06T05:52:30.414Z,24.12
2019-04-06T05:53:02.976Z,25.97
2019-04-06T05:53:35.798Z,24.95
2019-04-06T05:54:08.349Z,24.95
2019-04-06T05:54:41.218Z,24.37
2019-04-06T05:55:14.044Z,23.75
2019-04-06T05:55:46.593Z,26.15
2019-04-06T05:56:19.148Z,25.40
2019-04-06T05:57:11.134Z,25.62
2019-04-06T05:57:43.859Z,25.52
2019-04-06T05:58:17.185Z,24.10
2019-04-06T05:58:50.083Z,25.40
2019-04-06T05:59:22.744Z,25.20
2019-04-06T05:59:55.412Z,24.40
2019-04-06T06:00:27.956Z,25.15
2019-04-06T06:01:03.692Z,25.02
2019-04-06T06:01:35.432Z,25.27
2019-04-06T06:02:10.051Z,25.62
2019-04-06T06:02:42.309Z,25.10
2019-04-06T06:03:15.484Z,25.12
2019-04-06T06:03:48.149Z,25.88
2019-04-06T06:04:21.003Z,23.35
2019-04-06T06:04:53.547Z,23.60
2019-04-06T06:05:26.095Z,24.35
2019-04-06T06:05:59.055Z,24.90
2019-04-06T06:06:31.618Z,23.35
2019-04-06T06:07:04.650Z,23.83
2019-04-06T06:07:37.200Z,24.85
2019-04-06T06:08:09.757Z,23.62
2019-04-06T06:08:42.327Z,24.05
2019-04-06T06:09:14.877Z,23.42
2019-04-06T06:09:47.559Z,22.48
2019-04-06T06:10:20.098Z,23.22
2019-04-06T06:10:52.635Z,23.55
2019-04-06T06:11:25.500Z,24.47
2019-04-06T06:11:58.054Z,24.65
2019-04-06T06:12:31.250Z,26.07
2019-04-06T06:13:04.273Z,22.37
2019-04-06T06:13:39.118Z,22.25
2019-04-06T06:14:11.277Z,23.45
2019-04-06T06:14:43.820Z,22.62
2019-04-06T06:15:16.843Z,23.80
2019-04-06T06:15:49.780Z,23.30
2019-04-06T06:16:22.674Z,22.70
2019-04-06T06:16:55.850Z,22.85
2019-04-06T06:17:28.394Z,24.07
2019-04-06T06:18:01.378Z,23.50
2019-04-06T06:18:33.922Z,24.00
2019-04-06T06:19:13.742Z,23.15
2019-04-06T06:19:51.376Z,24.52
2019-04-06T06:20:24.054Z,23.92
2019-04-06T06:20:57.319Z,23.55
2019-04-06T06:21:29.863Z,22.75
2019-04-06T06:22:02.411Z,24.57
2019-04-06T06:22:36.295Z,24.43
2019-04-06T06:23:11.091Z,25.27
2019-04-06T06:23:43.627Z,22.95
2019-04-06T06:24:17.621Z,25.43
2019-04-06T06:24:50.466Z,23.42
2019-04-06T06:25:22.986Z,23.83
2019-04-06T06:25:55.650Z,23.92
2019-04-06T06:26:28.214Z,25.15
2019-04-06T06:27:00.962Z,24.70
2019-04-06T06:27:33.775Z,23.98
2019-04-06T06:28:14.132Z,24.80
2019-04-06T06:28:40.725Z,25.48
2019-04-06T06:29:13.787Z,24.92
2019-04-06T06:29:46.742Z,23.50
2019-04-06T06:30:21.573Z,24.35
2019-04-06T06:30:54.154Z,24.47
2019-04-06T06:31:26.707Z,25.02
2019-04-06T06:31:59.412Z,22.75
2019-04-06T06:32:32.229Z,22.50
2019-04-06T06:33:04.781Z,22.40
2019-04-06T06:33:40.471Z,24.47
2019-04-06T06:34:17.301Z,23.32
2019-04-06T06:34:50.076Z,23.22
2019-04-06T06:35:23.032Z,24.55
2019-04-06T06:35:57.755Z,24.52
2019-04-06T06:36:33.350Z,24.05
2019-04-06T06:37:06.226Z,22.75
2019-04-06T06:37:39.676Z,25.25
2019-04-06T06:38:12.254Z,24.90
2019-04-06T06:38:44.796Z,24.43
2019-04-06T06:39:17.572Z,23.70
2019-04-06T06:39:50.091Z,24.47
2019-04-06T06:40:22.947Z,24.05
2019-04-06T06:40:56.124Z,22.30
2019-04-06T06:41:29.435Z,23.15
2019-04-06T06:42:02.529Z,23.55
2019-04-06T06:42:35.083Z,23.12
2019-04-06T06:43:07.635Z,24.32
2019-04-06T06:43:41.135Z,23.32
2019-04-06T06:44:13.830Z,24.45
2019-04-06T06:44:47.722Z,23.85
2019-04-06T06:45:20.623Z,22.95
2019-04-06T06:45:53.322Z,23.20
2019-04-06T06:46:26.375Z,24.25
2019-04-06T06:46:58.950Z,22.50
2019-04-06T06:47:31.794Z,23.05
2019-04-06T06:48:04.346Z,22.48
2019-04-06T06:48:36.988Z,22.80
2019-04-06T06:49:09.571Z,22.80
2019-04-06T06:49:42.125Z,24.20
2019-04-06T06:50:14.994Z,23.27
2019-04-06T06:50:48.306Z,23.25
2019-04-06T06:51:21.340Z,24.35
2019-04-06T06:51:53.882Z,22.55
2019-04-06T06:52:26.629Z,23.30
2019-04-06T06:52:59.723Z,23.95
2019-04-06T06:53:32.661Z,24.00
2019-04-06T06:54:07.342Z,21.68
2019-04-06T06:54:39.571Z,23.75
2019-04-06T06:55:12.742Z,22.77
2019-04-06T06:55:45.395Z,23.92
2019-04-06T06:56:17.939Z,23.73
2019-04-06T06:56:50.561Z,22.37
2019-04-06T06:57:23.098Z,24.05
2019-04-06T06:57:55.687Z,23.38
2019-04-06T06:58:28.237Z,23.85
2019-04-06T06:59:00.779Z,22.02
2019-04-06T06:59:33.718Z,22.13
2019-04-06T07:00:06.803Z,23.60
2019-04-06T07:00:39.426Z,22.07
2019-04-06T07:01:12.012Z,24.50
2019-04-06T07:01:44.570Z,24.52
2019-04-06T07:02:17.451Z,22.40
2019-04-06T07:02:54.793Z,22.80
2019-04-06T07:03:27.711Z,23.22
2019-04-06T07:04:00.263Z,23.42
2019-04-06T07:04:33.432Z,23.07
2019-04-06T07:05:06.404Z,23.47
2019-04-06T07:05:39.372Z,24.27
2019-04-06T07:06:11.951Z,21.95
2019-04-06T07:06:44.499Z,24.05
2019-04-06T07:07:17.353Z,24.00
2019-04-06T07:07:49.944Z,23.20
2019-04-06T07:08:22.490Z,22.82
2019-04-06T07:08:55.074Z,23.73
2019-04-06T07:09:27.827Z,23.10
2019-04-06T07:10:05.667Z,23.05
2019-04-06T07:10:34.738Z,23.52
2019-04-06T07:11:07.728Z,24.40
2019-04-06T07:11:40.247Z,23.75
2019-04-06T07:12:13.270Z,21.97